Time;durP1;ratioP1;P1;durP2;ratioP2;P2;SDS_P1;SDS_P2;PMS_P1;PMS_P2;Temp;Humidity;BMP_temperature;BMP_pressure;BME280_temperature;BME280_humidity;BME280_pressure;Samples;Min_cycle;Max_cycle;Signal;HPM_P1;HPM_P2
2022/07/23 00:01:28;;;;;;;;;;;;;;;;;;4896904;29;19943;-69
2022/07/23 00:03:56;;;;;;;;;;;;;;;;;;4880399;29;20005;-68
2022/07/23 00:06:22;;;;;;;;;;;;;;;;;;4897918;29;19922;-68
2022/07/23 00:08:47;;;;;;;;;;;;;;;;;;4897797;29;19931;-68
2022/07/23 00:11:12;;;;;;;;;;;;;;;;;;4885694;29;19971;-68
2022/07/23 00:13:40;;;;;;;;;;;;;;;;;;4886982;29;19923;-69
2022/07/23 00:16:08;;;;;;;;;;;;;;;;;;4883837;29;19943;-68
2022/07/23 00:18:34;;;;;;;;;;;;;;;;;;4896037;29;19927;-66
2022/07/23 00:20:59;;;;;;;;;;;;;;;;;;4896773;29;19922;-67
2022/07/23 00:23:25;;;;;;;;;;;;;;;;;;4895167;29;19923;-68
2022/07/23 00:25:52;;;;;;;;;;;;;;;;;;4896286;29;19930;-68
2022/07/23 00:28:23;;;;;;;;;;;;;;;;;;4893780;29;19927;-68
2022/07/23 00:30:52;;;;;;;;;;;;;;;;;;4896807;29;19963;-67
2022/07/23 00:33:20;;;;;;;;;;;;;;;;;;4899236;29;20022;-67
2022/07/23 00:35:48;;;;;;;;;;;;;;;;;;4878759;29;19923;-68
2022/07/23 00:38:13;;;;;;;;;;;;;;;;;;4896821;29;19937;-68
2022/07/23 00:40:39;;;;;;;;;;;;;;;;;;4894688;29;20022;-68
2022/07/23 00:43:07;;;;;;;;;;;;;;;;;;4888774;29;20617;-67
2022/07/23 00:45:32;;;;;;;;;;;;;;;;;;4896527;29;19938;-67
2022/07/23 00:48:00;;;;;;;;;;;;;;;;;;4896869;29;20383;-67
2022/07/23 00:50:26;;;;;;;;;;;;;;;;;;4896518;29;19943;-67
2022/07/23 00:52:53;;;;;;;;;;;;;;;;;;4879994;29;19919;-68
2022/07/23 00:55:18;;;;;;;;;;;;;;;;;;4894488;29;19954;-67
2022/07/23 00:57:46;;;;;;;;;;;;;;;;;;4896532;29;19965;-68
2022/07/23 01:00:14;;;;;;;;;;;;;;;;;;4896281;29;20042;-68
2022/07/23 01:02:40;;;;;;;;;;;;;;;;;;4897959;29;19979;-69
2022/07/23 01:05:05;;;;;;;;;;;;;;;;;;4896289;29;20116;-67
2022/07/23 01:07:30;;;;;;;;;;;;;;;;;;4881001;29;20041;-68
2022/07/23 01:09:56;;;;;;;;;;;;;;;;;;4886196;29;20810;-68
2022/07/23 01:12:21;;;;;;;;;;;;;;;;;;4882859;29;20305;-68
2022/07/23 01:14:49;;;;;;;;;;;;;;;;;;4896046;29;20387;-68
2022/07/23 01:17:15;;;;;;;;;;;;;;;;;;4872236;29;19935;-69
2022/07/23 01:19:40;;;;;;;;;;;;;;;;;;4879172;29;19919;-69
2022/07/23 01:22:06;;;;;;;;;;;;;;;;;;4895257;29;20045;-68
2022/07/23 01:24:32;;;;;;;;;;;;;;;;;;4894049;29;20057;-68
2022/07/23 01:26:59;;;;;;;;;;;;;;;;;;4889085;29;19978;-68
2022/07/23 01:29:25;;;;;;;;;;;;;;;;;;4881565;29;20094;-68
2022/07/23 01:31:53;;;;;;;;;;;;;;;;;;4878907;29;20539;-68
2022/07/23 01:34:21;;;;;;;;;;;;;;;;;;4895507;29;19930;-68
2022/07/23 01:36:49;;;;;;;;;;;;;;;;;;4898184;29;19990;-68
2022/07/23 01:39:14;;;;;;;;;;;;;;;;;;4901987;29;20473;-67
2022/07/23 01:41:41;;;;;;;;;;;;;;;;;;4881205;29;19923;-68
2022/07/23 01:44:09;;;;;;;;;;;;;;;;;;4899019;29;19929;-69
2022/07/23 01:46:35;;;;;;;;;;;;;;;;;;4900849;29;19923;-69
2022/07/23 01:49:00;;;;;;;;;;;;;;;;;;4879972;29;19923;-68
2022/07/23 01:51:25;;;;;;;;;;;;;;;;;;4900613;29;19923;-68
2022/07/23 01:53:51;;;;;;;;;;;;;;;;;;4898740;29;20033;-68
2022/07/23 01:56:21;;;;;;;;;;;;;;;;;;4886451;29;19950;-68
2022/07/23 01:58:49;;;;;;;;;;;;;;;;;;4899714;29;19919;-68
2022/07/23 02:01:14;;;;;;;;;;;;;;;;;;4899838;29;20541;-68
2022/07/23 02:03:40;;;;;;;;;;;;;;;;;;4897914;29;19923;-68
2022/07/23 02:06:08;;;;;;;;;;;;;;;;;;4899564;29;20025;-68
2022/07/23 02:08:41;;;;;;;;;;;;;;;;;;4898919;29;19931;-68
2022/07/23 02:11:07;;;;;;;;;;;;;;;;;;4882860;29;19991;-68
2022/07/23 02:13:32;;;;;;;;;;;;;;;;;;4883565;29;21043;-68
2022/07/23 02:16:00;;;;;;;;;;;;;;;;;;4898108;29;19923;-69
2022/07/23 02:18:25;;;;;;;;;;;;;;;;;;4893988;29;20258;-68
2022/07/23 02:20:51;;;;;;;;;;;;;;;;;;4900715;29;19923;-67
2022/07/23 02:23:19;;;;;;;;;;;;;;;;;;4899502;29;19923;-66
2022/07/23 02:25:44;;;;;;;;;;;;;;;;;;4895232;29;19960;-67
2022/07/23 02:28:12;;;;;;;;;;;;;;;;;;4882277;29;21259;-67
2022/07/23 02:30:39;;;;;;;;;;;;;;;;;;4896876;29;19931;-68
2022/07/23 02:33:06;;;;;;;;;;;;;;;;;;4897739;29;19919;-66
2022/07/23 02:35:34;;;;;;;;;;;;;;;;;;4897793;29;19942;-69
2022/07/23 02:38:00;;;;;;;;;;;;;;;;;;4900059;29;19919;-66
2022/07/23 02:40:25;;;;;;;;;;;;;;;;;;4896520;29;19982;-67
2022/07/23 02:42:50;;;;;;;;;;;;;;;;;;4896706;29;19923;-68
2022/07/23 02:45:16;;;;;;;;;;;;;;;;;;4897079;29;19926;-68
2022/07/23 02:47:43;;;;;;;;;;;;;;;;;;4898892;29;19934;-68
2022/07/23 02:50:11;;;;;;;;;;;;;;;;;;4882636;29;20046;-67
2022/07/23 02:52:37;;;;;;;;;;;;;;;;;;4899034;29;19922;-68
2022/07/23 02:55:03;;;;;;;;;;;;;;;;;;4897407;29;20498;-68
2022/07/23 02:57:28;;;;;;;;;;;;;;;;;;4898072;29;20009;-66
2022/07/23 02:59:54;;;;;;;;;;;;;;;;;;4895147;29;19919;-67
2022/07/23 03:02:19;;;;;;;;;;;;;;;;;;4901505;29;19934;-67
2022/07/23 03:04:45;;;;;;;;;;;;;;;;;;4896915;29;19923;-68
2022/07/23 03:07:13;;;;;;;;;;;;;;;;;;4897962;29;20551;-67
2022/07/23 03:09:39;;;;;;;;;;;;;;;;;;4897498;29;19923;-68
2022/07/23 03:12:06;;;;;;;;;;;;;;;;;;4883768;29;20010;-67
2022/07/23 03:14:31;;;;;;;;;;;;;;;;;;4902466;29;19923;-68
2022/07/23 03:17:02;;;;;;;;;;;;;;;;;;4881092;29;19923;-68
2022/07/23 03:19:30;;;;;;;;;;;;;;;;;;4883200;29;19970;-67
2022/07/23 03:21:55;;;;;;;;;;;;;;;;;;4881460;29;19930;-67
2022/07/23 03:24:23;;;;;;;;;;;;;;;;;;4897133;29;19923;-68
2022/07/23 03:26:49;;;;;;;;;;;;;;;;;;4898257;29;20437;-66
2022/07/23 03:29:17;;;;;;;;;;;;;;;;;;4896509;29;19923;-66
2022/07/23 03:31:42;;;;;;;;;;;;;;;;;;4896845;29;20381;-66
2022/07/23 03:34:13;;;;;;;;;;;;;;;;;;4898112;29;19954;-67
2022/07/23 03:36:38;;;;;;;;;;;;;;;;;;4900959;29;19939;-66
2022/07/23 03:39:06;;;;;;;;;;;;;;;;;;4898575;29;19923;-66
2022/07/23 03:41:31;;;;;;;;;;;;;;;;;;4885891;29;19946;-65
2022/07/23 03:43:57;;;;;;;;;;;;;;;;;;4880790;29;19923;-64
2022/07/23 03:46:24;;;;;;;;;;;;;;;;;;4896391;29;19927;-68
2022/07/23 03:48:50;;;;;;;;;;;;;;;;;;4894148;29;19933;-66
2022/07/23 03:51:20;;;;;;;;;;;;;;;;;;4897637;29;20018;-65
2022/07/23 03:53:48;;;;;;;;;;;;;;;;;;4896347;29;20851;-65
2022/07/23 03:56:14;;;;;;;;;;;;;;;;;;4894763;29;19923;-67
2022/07/23 03:58:39;;;;;;;;;;;;;;;;;;4896923;29;19966;-66
2022/07/23 04:01:07;;;;;;;;;;;;;;;;;;4899536;29;19923;-66
2022/07/23 04:03:37;;;;;;;;;;;;;;;;;;4897467;29;19919;-64
2022/07/23 04:06:02;;;;;;;;;;;;;;;;;;4897442;29;19958;-67
2022/07/23 04:08:30;;;;;;;;;;;;;;;;;;4897745;29;20010;-65
2022/07/23 04:10:55;;;;;;;;;;;;;;;;;;4896047;29;19923;-65
2022/07/23 04:13:23;;;;;;;;;;;;;;;;;;4897290;29;19918;-65
2022/07/23 04:15:49;;;;;;;;;;;;;;;;;;4898166;29;19969;-66
2022/07/23 04:18:17;;;;;;;;;;;;;;;;;;4884996;29;19939;-66
2022/07/23 04:20:42;;;;;;;;;;;;;;;;;;4895690;29;19919;-66
2022/07/23 04:23:10;;;;;;;;;;;;;;;;;;4898474;29;19919;-66
2022/07/23 04:25:35;;;;;;;;;;;;;;;;;;4895014;29;20021;-66
2022/07/23 04:28:00;;;;;;;;;;;;;;;;;;4897009;29;20474;-66
2022/07/23 04:30:26;;;;;;;;;;;;;;;;;;4896186;29;19918;-64
2022/07/23 04:32:51;;;;;;;;;;;;;;;;;;4897293;29;20017;-67
2022/07/23 04:35:17;;;;;;;;;;;;;;;;;;4899553;29;19927;-67
2022/07/23 04:37:44;;;;;;;;;;;;;;;;;;4896127;29;20522;-66
2022/07/23 04:40:09;;;;;;;;;;;;;;;;;;4894445;29;19926;-65
2022/07/23 04:42:35;;;;;;;;;;;;;;;;;;4879076;29;20479;-68
2022/07/23 04:45:01;;;;;;;;;;;;;;;;;;4897895;29;19949;-66
2022/07/23 04:47:28;;;;;;;;;;;;;;;;;;4896210;29;19923;-65
2022/07/23 04:49:53;;;;;;;;;;;;;;;;;;4896389;29;19923;-65
2022/07/23 04:52:19;;;;;;;;;;;;;;;;;;4887696;29;20028;-66
2022/07/23 04:54:44;;;;;;;;;;;;;;;;;;4892660;29;20470;-66
2022/07/23 04:57:12;;;;;;;;;;;;;;;;;;4899380;29;19923;-67
2022/07/23 04:59:40;;;;;;;;;;;;;;;;;;4900870;29;19983;-68
2022/07/23 05:02:06;;;;;;;;;;;;;;;;;;4898259;29;20033;-68
2022/07/23 05:04:31;;;;;;;;;;;;;;;;;;4887044;29;19927;-65
2022/07/23 05:06:57;;;;;;;;;;;;;;;;;;4893852;29;20947;-66
2022/07/23 05:09:25;;;;;;;;;;;;;;;;;;4886764;29;19923;-67
2022/07/23 05:11:50;;;;;;;;;;;;;;;;;;4899676;29;19930;-66
2022/07/23 05:14:16;;;;;;;;;;;;;;;;;;4903636;29;19919;-65
2022/07/23 05:16:42;;;;;;;;;;;;;;;;;;4901846;29;19946;-65
2022/07/23 05:19:08;;;;;;;;;;;;;;;;;;4900450;29;19970;-66
2022/07/23 05:21:34;;;;;;;;;;;;;;;;;;4901655;29;20715;-67
2022/07/23 05:23:59;;;;;;;;;;;;;;;;;;4899100;29;19982;-64
2022/07/23 05:26:29;;;;;;;;;;;;;;;;;;4885072;29;19927;-65
2022/07/23 05:28:57;;;;;;;;;;;;;;;;;;4898618;29;19919;-64
2022/07/23 05:31:23;;;;;;;;;;;;;;;;;;4875568;29;20295;-66
2022/07/23 05:33:48;;;;;;;;;;;;;;;;;;4900429;29;19927;-64
2022/07/23 05:36:16;;;;;;;;;;;;;;;;;;4901189;29;20918;-63
2022/07/23 05:38:44;;;;;;;;;;;;;;;;;;4898191;29;19919;-67
2022/07/23 05:41:09;;;;;;;;;;;;;;;;;;4881546;29;19923;-67
2022/07/23 05:43:38;;;;;;;;;;;;;;;;;;4899554;29;20438;-67
2022/07/23 05:46:04;;;;;;;;;;;;;;;;;;4899122;29;19954;-66
2022/07/23 05:48:29;;;;;;;;;;;;;;;;;;4888004;29;20070;-65
2022/07/23 05:50:57;;;;;;;;;;;;;;;;;;4883190;29;20343;-66
2022/07/23 05:53:22;;;;;;;;;;;;;;;;;;4898978;29;19922;-66
2022/07/23 05:55:50;;;;;;;;;;;;;;;;;;4878756;29;19918;-65
2022/07/23 05:58:15;;;;;;;;;;;;;;;;;;4886421;29;20033;-67
2022/07/23 06:00:43;;;;;;;;;;;;;;;;;;4900121;29;19933;-68
2022/07/23 06:03:09;;;;;;;;;;;;;;;;;;4887379;29;20364;-67
2022/07/23 06:05:35;;;;;;;;;;;;;;;;;;4903503;29;19931;-68
2022/07/23 06:08:00;;;;;;;;;;;;;;;;;;4898458;29;20000;-69
2022/07/23 06:10:28;;;;;;;;;;;;;;;;;;4896996;29;19923;-67
2022/07/23 06:12:53;;;;;;;;;;;;;;;;;;4883800;29;19927;-67
2022/07/23 06:15:18;;;;;;;;;;;;;;;;;;4897257;29;21897;-68
2022/07/23 06:17:44;;;;;;;;;;;;;;;;;;4898992;29;19922;-68
2022/07/23 06:20:12;;;;;;;;;;;;;;;;;;4902640;29;19918;-67
2022/07/23 06:22:37;;;;;;;;;;;;;;;;;;4897517;29;19997;-67
2022/07/23 06:25:05;;;;;;;;;;;;;;;;;;4898820;29;19927;-66
2022/07/23 06:27:33;;;;;;;;;;;;;;;;;;4898542;29;20446;-67
2022/07/23 06:30:01;;;;;;;;;;;;;;;;;;4900119;29;20009;-66
2022/07/23 06:32:26;;;;;;;;;;;;;;;;;;4898855;29;19930;-65
2022/07/23 06:34:54;;;;;;;;;;;;;;;;;;4901464;29;19978;-67
2022/07/23 06:37:19;;;;;;;;;;;;;;;;;;4913657;29;19926;-68
2022/07/23 06:39:47;;;;;;;;;;;;;;;;;;4884884;29;20438;-66
2022/07/23 06:42:16;;;;;;;;;;;;;;;;;;4899798;29;19994;-67
2022/07/23 06:44:43;;;;;;;;;;;;;;;;;;4896114;29;19933;-65
2022/07/23 06:47:09;;;;;;;;;;;;;;;;;;4898404;29;19923;-67
2022/07/23 06:49:37;;;;;;;;;;;;;;;;;;4884176;29;19926;-69
2022/07/23 06:52:02;;;;;;;;;;;;;;;;;;4897371;29;19926;-67
2022/07/23 06:54:30;;;;;;;;;;;;;;;;;;4898285;29;20009;-66
2022/07/23 06:56:58;;;;;;;;;;;;;;;;;;4877844;29;20080;-67
2022/07/23 06:59:26;;;;;;;;;;;;;;;;;;4899397;29;19926;-69
2022/07/23 07:01:54;;;;;;;;;;;;;;;;;;4895568;29;19931;-70
2022/07/23 07:04:19;;;;;;;;;;;;;;;;;;4898499;29;19926;-67
2022/07/23 07:06:45;;;;;;;;;;;;;;;;;;4881281;29;19927;-71
2022/07/23 07:09:10;;;;;;;;;;;;;;;;;;4897318;29;19927;-69
2022/07/23 07:11:35;;;;;;;;;;;;;;;;;;4888262;29;20680;-69
2022/07/23 07:14:01;;;;;;;;;;;;;;;;;;4896377;29;20851;-70
2022/07/23 07:16:26;;;;;;;;;;;;;;;;;;4894815;29;21941;-71
2022/07/23 07:18:54;;;;;;;;;;;;;;;;;;4900925;29;20407;-70
2022/07/23 07:21:20;;;;;;;;;;;;;;;;;;4898394;29;20616;-68
2022/07/23 07:23:46;;;;;;;;;;;;;;;;;;4896927;29;19927;-69
2022/07/23 07:26:14;;;;;;;;;;;;;;;;;;4897971;29;19919;-69
2022/07/23 07:28:39;;;;;;;;;;;;;;;;;;4897547;29;20006;-67
2022/07/23 07:31:04;;;;;;;;;;;;;;;;;;4897531;29;20965;-65
2022/07/23 07:33:32;;;;;;;;;;;;;;;;;;4896895;29;19922;-67
2022/07/23 07:36:00;;;;;;;;;;;;;;;;;;4898702;29;19982;-68
2022/07/23 07:38:25;;;;;;;;;;;;;;;;;;4892890;29;19923;-69
2022/07/23 07:40:53;;;;;;;;;;;;;;;;;;4898137;29;19919;-70
2022/07/23 07:43:18;;;;;;;;;;;;;;;;;;4896259;29;19926;-66
2022/07/23 07:45:46;;;;;;;;;;;;;;;;;;4883136;29;19914;-67
2022/07/23 07:48:11;;;;;;;;;;;;;;;;;;4896296;29;19922;-68
2022/07/23 07:50:39;;;;;;;;;;;;;;;;;;4895687;29;19930;-67
2022/07/23 07:53:04;;;;;;;;;;;;;;;;;;4898073;29;20399;-68
2022/07/23 07:55:30;;;;;;;;;;;;;;;;;;4895438;29;20287;-67
2022/07/23 07:57:56;;;;;;;;;;;;;;;;;;4879719;29;19922;-69
2022/07/23 08:00:26;;;;;;;;;;;;;;;;;;4897096;29;19923;-69
2022/07/23 08:02:51;;;;;;;;;;;;;;;;;;4880080;29;19985;-72
2022/07/23 08:05:17;;;;;;;;;;;;;;;;;;4900570;29;20740;-68
2022/07/23 08:07:44;;;;;;;;;;;;;;;;;;4881483;29;19931;-69
2022/07/23 08:10:14;;;;;;;;;;;;;;;;;;4882847;29;19923;-69
2022/07/23 08:12:42;;;;;;;;;;;;;;;;;;4896148;29;19920;-68
2022/07/23 08:15:07;;;;;;;;;;;;;;;;;;4896282;29;19926;-69
2022/07/23 08:17:32;;;;;;;;;;;;;;;;;;4881999;29;20414;-70
2022/07/23 08:19:58;;;;;;;;;;;;;;;;;;4886164;29;20359;-70
2022/07/23 08:22:24;;;;;;;;;;;;;;;;;;4879947;29;19923;-67
2022/07/23 08:24:49;;;;;;;;;;;;;;;;;;4879614;29;20586;-68
2022/07/23 08:27:15;;;;;;;;;;;;;;;;;;4895081;29;20715;-69
2022/07/23 08:29:40;;;;;;;;;;;;;;;;;;4895823;29;19958;-69
2022/07/23 08:32:06;;;;;;;;;;;;;;;;;;4885313;29;21796;-69
2022/07/23 08:34:33;;;;;;;;;;;;;;;;;;4896828;29;19931;-71
2022/07/23 08:37:01;;;;;;;;;;;;;;;;;;4880727;29;19923;-67
2022/07/23 08:39:27;;;;;;;;;;;;;;;;;;4880330;29;20599;-68
2022/07/23 08:41:57;;;;;;;;;;;;;;;;;;4896799;29;19923;-68
2022/07/23 08:44:25;;;;;;;;;;;;;;;;;;4896519;29;19951;-69
2022/07/23 08:46:53;;;;;;;;;;;;;;;;;;4894651;29;20260;-70
2022/07/23 08:49:18;;;;;;;;;;;;;;;;;;4897345;29;19938;-68
2022/07/23 08:51:46;;;;;;;;;;;;;;;;;;4894549;29;21208;-70
2022/07/23 08:54:14;;;;;;;;;;;;;;;;;;4882349;29;19944;-69
2022/07/23 08:56:42;;;;;;;;;;;;;;;;;;4895910;29;19959;-68
2022/07/23 08:59:13;;;;;;;;;;;;;;;;;;4897117;29;19923;-69
2022/07/23 09:01:38;;;;;;;;;;;;;;;;;;4881313;29;19930;-70
2022/07/23 09:04:03;;;;;;;;;;;;;;;;;;4887698;29;20284;-66
2022/07/23 09:06:29;;;;;;;;;;;;;;;;;;4882569;29;19927;-69
2022/07/23 09:08:58;;;;;;;;;;;;;;;;;;4896518;29;19923;-68
2022/07/23 09:11:23;;;;;;;;;;;;;;;;;;4897285;29;19923;-68
2022/07/23 09:13:48;;;;;;;;;;;;;;;;;;4882727;29;20439;-68
2022/07/23 09:16:16;;;;;;;;;;;;;;;;;;4883680;29;19958;-66
2022/07/23 09:18:43;;;;;;;;;;;;;;;;;;4894929;29;19934;-66
2022/07/23 09:21:09;;;;;;;;;;;;;;;;;;4869383;29;19934;-67
2022/07/23 09:23:35;;;;;;;;;;;;;;;;;;4895398;29;19983;-69
2022/07/23 09:26:01;;;;;;;;;;;;;;;;;;4895087;29;21732;-65
2022/07/23 09:28:26;;;;;;;;;;;;;;;;;;4896225;29;20430;-69
2022/07/23 09:30:52;;;;;;;;;;;;;;;;;;4882512;29;20205;-67
2022/07/23 09:33:20;;;;;;;;;;;;;;;;;;4894545;29;19931;-68
2022/07/23 09:35:45;;;;;;;;;;;;;;;;;;4886136;29;19927;-71
2022/07/23 09:38:11;;;;;;;;;;;;;;;;;;4895722;29;19930;-70
2022/07/23 09:40:36;;;;;;;;;;;;;;;;;;4883945;29;19923;-68
2022/07/23 09:43:04;;;;;;;;;;;;;;;;;;4911043;29;21934;-70
2022/07/23 09:45:32;;;;;;;;;;;;;;;;;;4894729;29;19962;-70
2022/07/23 09:47:57;;;;;;;;;;;;;;;;;;4899027;29;20331;-68
2022/07/23 09:50:23;;;;;;;;;;;;;;;;;;4899116;29;19961;-67
2022/07/23 09:52:49;;;;;;;;;;;;;;;;;;4896656;29;20796;-68
2022/07/23 09:55:17;;;;;;;;;;;;;;;;;;4884579;29;20729;-68
2022/07/23 09:57:49;;;;;;;;;;;;;;;;;;4896280;29;20594;-70
2022/07/23 10:00:15;;;;;;;;;;;;;;;;;;4901022;29;20631;-69
2022/07/23 10:02:40;;;;;;;;;;;;;;;;;;4898281;29;19969;-66
2022/07/23 10:05:06;;;;;;;;;;;;;;;;;;4888942;29;19927;-69
2022/07/23 10:07:33;;;;;;;;;;;;;;;;;;4885147;29;19922;-65
2022/07/23 10:09:58;;;;;;;;;;;;;;;;;;4898654;29;19922;-66
2022/07/23 10:15:10;;;;;;;;;;;;;;;;;;4897528;29;20381;-68
2022/07/23 10:17:38;;;;;;;;;;;;;;;;;;4900212;29;19923;-67
2022/07/23 10:20:03;;;;;;;;;;;;;;;;;;4889048;29;20014;-67
2022/07/23 10:22:28;;;;;;;;;;;;;;;;;;4898901;29;19931;-67
2022/07/23 10:24:53;;;;;;;;;;;;;;;;;;4898353;29;20038;-67
2022/07/23 10:27:21;;;;;;;;;;;;;;;;;;4895988;29;20773;-68
2022/07/23 10:29:46;;;;;;;;;;;;;;;;;;4886188;29;19931;-65
2022/07/23 10:32:15;;;;;;;;;;;;;;;;;;4898594;29;19926;-67
2022/07/23 10:34:40;;;;;;;;;;;;;;;;;;4897646;29;20331;-66
2022/07/23 10:37:06;;;;;;;;;;;;;;;;;;4897413;29;19919;-65
2022/07/23 10:39:31;;;;;;;;;;;;;;;;;;4899844;29;20469;-66
2022/07/23 10:41:59;;;;;;;;;;;;;;;;;;4897251;29;19947;-68
2022/07/23 10:44:26;;;;;;;;;;;;;;;;;;4902489;29;19924;-67
2022/07/23 10:46:52;;;;;;;;;;;;;;;;;;4899734;29;19919;-65
2022/07/23 10:49:18;;;;;;;;;;;;;;;;;;4896358;29;20653;-65
2022/07/23 10:51:48;;;;;;;;;;;;;;;;;;4874670;29;19927;-67
2022/07/23 10:54:13;;;;;;;;;;;;;;;;;;4895977;29;19923;-66
2022/07/23 10:56:39;;;;;;;;;;;;;;;;;;4899916;29;19934;-66
2022/07/23 10:59:05;;;;;;;;;;;;;;;;;;4897049;29;19930;-67
2022/07/23 11:01:33;;;;;;;;;;;;;;;;;;4898957;29;20883;-65
2022/07/23 11:04:00;;;;;;;;;;;;;;;;;;4886247;29;20322;-66
2022/07/23 11:06:26;;;;;;;;;;;;;;;;;;4896816;29;19923;-66
2022/07/23 11:08:53;;;;;;;;;;;;;;;;;;4902801;29;20381;-65
2022/07/23 11:11:18;;;;;;;;;;;;;;;;;;4896480;29;19919;-66
2022/07/23 11:13:46;;;;;;;;;;;;;;;;;;4887177;29;22118;-65
2022/07/23 11:16:14;;;;;;;;;;;;;;;;;;4901848;29;19934;-66
2022/07/23 11:18:40;;;;;;;;;;;;;;;;;;4883555;29;20004;-65
2022/07/23 11:21:08;;;;;;;;;;;;;;;;;;4898487;29;19923;-65
2022/07/23 11:23:33;;;;;;;;;;;;;;;;;;4900650;29;19929;-64
2022/07/23 11:25:59;;;;;;;;;;;;;;;;;;4895957;29;20371;-65
2022/07/23 11:28:27;;;;;;;;;;;;;;;;;;4900726;29;20831;-66
2022/07/23 11:30:55;;;;;;;;;;;;;;;;;;4897692;29;19934;-66
2022/07/23 11:33:21;;;;;;;;;;;;;;;;;;4898792;29;19923;-66
2022/07/23 11:35:49;;;;;;;;;;;;;;;;;;4897097;29;19927;-67
2022/07/23 11:38:14;;;;;;;;;;;;;;;;;;4881323;29;19925;-67
2022/07/23 11:40:42;;;;;;;;;;;;;;;;;;4899627;29;19927;-66
2022/07/23 11:43:07;;;;;;;;;;;;;;;;;;4895409;29;20054;-69
2022/07/23 11:45:33;;;;;;;;;;;;;;;;;;4895957;29;20358;-66
2022/07/23 11:48:00;;;;;;;;;;;;;;;;;;4901472;29;20408;-64
2022/07/23 11:50:26;;;;;;;;;;;;;;;;;;4899622;29;20916;-66
2022/07/23 11:52:52;;;;;;;;;;;;;;;;;;4896358;29;20016;-65
2022/07/23 11:55:17;;;;;;;;;;;;;;;;;;4880900;29;20189;-66
2022/07/23 11:57:45;;;;;;;;;;;;;;;;;;4882058;29;21015;-64
2022/07/23 12:00:11;;;;;;;;;;;;;;;;;;4899558;29;19930;-65
2022/07/23 12:02:39;;;;;;;;;;;;;;;;;;4896816;29;20382;-66
2022/07/23 12:05:09;;;;;;;;;;;;;;;;;;4896393;29;19934;-66
2022/07/23 12:07:38;;;;;;;;;;;;;;;;;;4895998;29;20125;-63
2022/07/23 12:10:04;;;;;;;;;;;;;;;;;;4898100;29;21833;-66
2022/07/23 12:12:29;;;;;;;;;;;;;;;;;;4897113;29;19923;-66
2022/07/23 12:15:00;;;;;;;;;;;;;;;;;;4897692;29;19927;-66
2022/07/23 12:17:25;;;;;;;;;;;;;;;;;;4897182;29;19942;-64
2022/07/23 12:19:53;;;;;;;;;;;;;;;;;;4899195;29;20081;-65
2022/07/23 12:22:20;;;;;;;;;;;;;;;;;;4896654;29;20001;-65
2022/07/23 12:24:46;;;;;;;;;;;;;;;;;;4896521;29;20580;-64
2022/07/23 12:27:11;;;;;;;;;;;;;;;;;;4883150;29;19923;-64
2022/07/23 12:29:37;;;;;;;;;;;;;;;;;;4897609;29;20642;-65
2022/07/23 12:32:07;;;;;;;;;;;;;;;;;;4899581;29;20014;-65
2022/07/23 12:34:32;;;;;;;;;;;;;;;;;;4898480;29;20992;-65
2022/07/23 12:36:58;;;;;;;;;;;;;;;;;;4898443;29;19918;-66
2022/07/23 12:39:28;;;;;;;;;;;;;;;;;;4894897;29;20839;-62
2022/07/23 12:41:54;;;;;;;;;;;;;;;;;;4899355;29;20010;-65
2022/07/23 12:44:19;;;;;;;;;;;;;;;;;;4895707;29;19927;-65
2022/07/23 12:46:49;;;;;;;;;;;;;;;;;;4895508;29;20018;-66
2022/07/23 12:49:15;;;;;;;;;;;;;;;;;;4898128;29;19930;-67
2022/07/23 12:51:40;;;;;;;;;;;;;;;;;;4884092;29;19919;-66
2022/07/23 12:54:06;;;;;;;;;;;;;;;;;;4898966;29;20379;-65
2022/07/23 12:56:34;;;;;;;;;;;;;;;;;;4894309;29;20598;-66
2022/07/23 12:59:01;;;;;;;;;;;;;;;;;;4896101;29;20020;-67
2022/07/23 13:01:26;;;;;;;;;;;;;;;;;;4896100;29;19923;-66
2022/07/23 13:03:52;;;;;;;;;;;;;;;;;;4895842;29;19923;-64
2022/07/23 13:06:18;;;;;;;;;;;;;;;;;;4894203;29;19923;-67
2022/07/23 13:08:45;;;;;;;;;;;;;;;;;;4880689;29;19931;-66
2022/07/23 13:11:10;;;;;;;;;;;;;;;;;;4896923;29;19930;-64
2022/07/23 13:13:38;;;;;;;;;;;;;;;;;;4885218;29;19923;-63
2022/07/23 13:16:03;;;;;;;;;;;;;;;;;;4894176;29;19935;-64
2022/07/23 13:18:33;;;;;;;;;;;;;;;;;;4897557;29;19927;-64
2022/07/23 13:20:59;;;;;;;;;;;;;;;;;;4896017;29;19991;-63
2022/07/23 13:23:24;;;;;;;;;;;;;;;;;;4895613;29;20867;-64
2022/07/23 13:25:54;;;;;;;;;;;;;;;;;;4896003;29;20652;-64
2022/07/23 13:28:22;;;;;;;;;;;;;;;;;;4879369;29;19923;-64
2022/07/23 13:30:49;;;;;;;;;;;;;;;;;;4896287;29;19929;-66
2022/07/23 13:33:14;;;;;;;;;;;;;;;;;;4896043;29;20446;-67
2022/07/23 13:35:42;;;;;;;;;;;;;;;;;;4886653;29;19938;-66
2022/07/23 13:38:10;;;;;;;;;;;;;;;;;;4899783;29;19923;-66
2022/07/23 13:40:38;;;;;;;;;;;;;;;;;;4898385;29;19927;-65
2022/07/23 13:43:06;;;;;;;;;;;;;;;;;;4899451;29;19923;-64
2022/07/23 13:45:31;;;;;;;;;;;;;;;;;;4902852;29;19923;-67
2022/07/23 13:47:57;;;;;;;;;;;;;;;;;;4900690;29;19926;-66
2022/07/23 13:50:23;;;;;;;;;;;;;;;;;;4899344;29;19990;-65
2022/07/23 13:52:51;;;;;;;;;;;;;;;;;;4901182;29;20045;-66
2022/07/23 13:55:18;;;;;;;;;;;;;;;;;;4899300;29;19922;-66
2022/07/23 13:57:44;;;;;;;;;;;;;;;;;;4901896;29;19923;-64
2022/07/23 14:00:10;;;;;;;;;;;;;;;;;;4900070;29;19923;-65
2022/07/23 14:02:36;;;;;;;;;;;;;;;;;;4901340;29;19923;-63
2022/07/23 14:05:02;;;;;;;;;;;;;;;;;;4881864;29;21830;-66
2022/07/23 14:07:27;;;;;;;;;;;;;;;;;;4899334;29;19934;-65
2022/07/23 14:09:57;;;;;;;;;;;;;;;;;;4898350;29;19962;-65
2022/07/23 14:12:22;;;;;;;;;;;;;;;;;;4898847;29;19997;-67
2022/07/23 14:14:47;;;;;;;;;;;;;;;;;;4900787;29;20276;-64
2022/07/23 14:17:13;;;;;;;;;;;;;;;;;;4898303;29;20396;-63
2022/07/23 14:19:38;;;;;;;;;;;;;;;;;;4888700;29;22090;-63
2022/07/23 14:22:03;;;;;;;;;;;;;;;;;;4887098;29;20451;-64
2022/07/23 14:24:28;;;;;;;;;;;;;;;;;;4903169;29;19927;-66
2022/07/23 14:26:54;;;;;;;;;;;;;;;;;;4898827;29;20406;-66
2022/07/23 14:29:19;;;;;;;;;;;;;;;;;;4897492;29;19922;-67
2022/07/23 14:31:45;;;;;;;;;;;;;;;;;;4886298;29;19934;-67
2022/07/23 14:34:11;;;;;;;;;;;;;;;;;;4898140;29;19919;-66
2022/07/23 14:36:38;;;;;;;;;;;;;;;;;;4898384;29;20319;-64
2022/07/23 14:39:04;;;;;;;;;;;;;;;;;;4885314;29;19926;-63
2022/07/23 14:41:29;;;;;;;;;;;;;;;;;;4900590;29;19923;-62
2022/07/23 14:43:55;;;;;;;;;;;;;;;;;;4898359;29;20019;-65
2022/07/23 14:46:24;;;;;;;;;;;;;;;;;;4896716;29;19929;-66
2022/07/23 14:48:49;;;;;;;;;;;;;;;;;;4900281;29;19923;-63
2022/07/23 14:51:15;;;;;;;;;;;;;;;;;;4896859;29;20006;-65
2022/07/23 14:53:40;;;;;;;;;;;;;;;;;;4897864;29;19965;-68
2022/07/23 14:56:08;;;;;;;;;;;;;;;;;;4896672;29;20642;-67
2022/07/23 14:58:33;;;;;;;;;;;;;;;;;;4881695;29;19926;-65
2022/07/23 15:00:59;;;;;;;;;;;;;;;;;;4900366;29;19927;-65
2022/07/23 15:03:24;;;;;;;;;;;;;;;;;;4896863;29;19923;-65
2022/07/23 15:05:53;;;;;;;;;;;;;;;;;;4897526;29;19919;-65
2022/07/23 15:08:20;;;;;;;;;;;;;;;;;;4898469;29;20367;-66
2022/07/23 15:10:48;;;;;;;;;;;;;;;;;;4880003;29;19919;-66
2022/07/23 15:13:16;;;;;;;;;;;;;;;;;;4901203;29;19927;-66
2022/07/23 15:15:42;;;;;;;;;;;;;;;;;;4897398;29;19927;-66
2022/07/23 15:18:08;;;;;;;;;;;;;;;;;;4898565;29;20394;-66
2022/07/23 15:20:34;;;;;;;;;;;;;;;;;;4898180;29;19919;-69
2022/07/23 15:22:59;;;;;;;;;;;;;;;;;;4899512;29;19923;-66
2022/07/23 15:25:25;;;;;;;;;;;;;;;;;;4912674;29;19919;-67
2022/07/23 15:27:53;;;;;;;;;;;;;;;;;;4882936;29;20002;-67
2022/07/23 15:30:24;;;;;;;;;;;;;;;;;;4898091;29;19926;-68
2022/07/23 15:32:51;;;;;;;;;;;;;;;;;;4883531;29;20286;-67
2022/07/23 15:35:21;;;;;;;;;;;;;;;;;;4897912;29;20351;-65
2022/07/23 15:37:47;;;;;;;;;;;;;;;;;;4898611;29;21915;-65
2022/07/23 15:40:12;;;;;;;;;;;;;;;;;;4896353;29;19923;-66
2022/07/23 15:42:40;;;;;;;;;;;;;;;;;;4882992;29;19923;-68
2022/07/23 15:45:05;;;;;;;;;;;;;;;;;;4897165;29;19969;-63
2022/07/23 15:47:33;;;;;;;;;;;;;;;;;;4899551;29;19922;-66
2022/07/23 15:49:59;;;;;;;;;;;;;;;;;;4897736;29;19997;-68
2022/07/23 15:52:24;;;;;;;;;;;;;;;;;;4900373;29;20696;-67
2022/07/23 15:54:52;;;;;;;;;;;;;;;;;;4894608;29;19923;-66
2022/07/23 15:57:19;;;;;;;;;;;;;;;;;;4896988;29;19930;-67
2022/07/23 15:59:46;;;;;;;;;;;;;;;;;;4897006;29;20037;-67
2022/07/23 16:02:15;;;;;;;;;;;;;;;;;;4896506;29;20005;-67
2022/07/23 16:04:40;;;;;;;;;;;;;;;;;;4896665;29;21272;-67
2022/07/23 16:07:06;;;;;;;;;;;;;;;;;;4897172;29;19934;-68
2022/07/23 16:09:31;;;;;;;;;;;;;;;;;;4895100;29;19993;-69
2022/07/23 16:11:56;;;;;;;;;;;;;;;;;;4896431;29;20403;-72
2022/07/23 16:14:22;;;;;;;;;;;;;;;;;;4896924;29;19933;-69
2022/07/23 16:16:49;;;;;;;;;;;;;;;;;;4895552;29;20018;-67
2022/07/23 16:19:15;;;;;;;;;;;;;;;;;;4897263;29;19926;-67
2022/07/23 16:21:43;;;;;;;;;;;;;;;;;;4910652;29;19927;-69
2022/07/23 16:24:08;;;;;;;;;;;;;;;;;;4895844;29;19974;-67
2022/07/23 16:26:36;;;;;;;;;;;;;;;;;;4887328;29;20300;-68
2022/07/23 16:29:01;;;;;;;;;;;;;;;;;;4895991;29;19947;-70
2022/07/23 16:31:27;;;;;;;;;;;;;;;;;;4896505;29;20042;-69
2022/07/23 16:33:55;;;;;;;;;;;;;;;;;;4897257;29;20005;-71
2022/07/23 16:36:20;;;;;;;;;;;;;;;;;;4901303;29;20514;-70
2022/07/23 16:38:46;;;;;;;;;;;;;;;;;;4882257;29;21004;-71
2022/07/23 16:41:14;;;;;;;;;;;;;;;;;;4897319;29;19918;-71
2022/07/23 16:43:39;;;;;;;;;;;;;;;;;;4896375;29;20796;-70